sensor_id;sensor_type;location;lat;lon;timestamp;pressure;altitude;pressure_sealevel;temperature
71897;BMP280;59767;51.344;12.362;2022-10-16T00:02:50;100035.63;;;16.15
71897;BMP280;59767;51.344;12.362;2022-10-16T00:05:59;100016.78;;;16.09
71897;BMP280;59767;51.344;12.362;2022-10-16T00:09:03;100027.38;;;16.06
71897;BMP280;59767;51.344;12.362;2022-10-16T00:12:08;100021.47;;;16.06
71897;BMP280;59767;51.344;12.362;2022-10-16T00:15:11;100031.69;;;16.06
71897;BMP280;59767;51.344;12.362;2022-10-16T00:18:15;100026.81;;;16.04
71897;BMP280;59767;51.344;12.362;2022-10-16T00:21:22;100026.38;;;16.01
71897;BMP280;59767;51.344;12.362;2022-10-16T00:24:29;100038.00;;;16.03
71897;BMP280;59767;51.344;12.362;2022-10-16T00:27:33;100042.34;;;16.09
71897;BMP280;59767;51.344;12.362;2022-10-16T00:30:38;100040.94;;;16.13
71897;BMP280;59767;51.344;12.362;2022-10-16T00:33:42;100049.59;;;16.19
71897;BMP280;59767;51.344;12.362;2022-10-16T00:36:46;100044.09;;;16.22
71897;BMP280;59767;51.344;12.362;2022-10-16T00:39:50;100057.28;;;16.25
71897;BMP280;59767;51.344;12.362;2022-10-16T00:42:54;100060.38;;;16.27
71897;BMP280;59767;51.344;12.362;2022-10-16T00:46:00;100056.47;;;16.25
71897;BMP280;59767;51.344;12.362;2022-10-16T00:49:09;100047.06;;;16.25
71897;BMP280;59767;51.344;12.362;2022-10-16T00:52:14;100060.78;;;16.18
71897;BMP280;59767;51.344;12.362;2022-10-16T00:55:18;100063.34;;;16.18
71897;BMP280;59767;51.344;12.362;2022-10-16T00:58:23;100062.78;;;16.16
71897;BMP280;59767;51.344;12.362;2022-10-16T01:01:27;100058.84;;;16.13
71897;BMP280;59767;51.344;12.362;2022-10-16T01:04:37;100055.53;;;16.13
71897;BMP280;59767;51.344;12.362;2022-10-16T01:07:56;100055.69;;;16.11
71897;BMP280;59767;51.344;12.362;2022-10-16T01:11:45;100051.78;;;16.09
71897;BMP280;59767;51.344;12.362;2022-10-16T01:14:48;100049.41;;;16.07
71897;BMP280;59767;51.344;12.362;2022-10-16T01:21:27;100058.44;;;16.10
71897;BMP280;59767;51.344;12.362;2022-10-16T01:24:46;100060.44;;;16.08
71897;BMP280;59767;51.344;12.362;2022-10-16T01:27:52;100057.28;;;16.12
71897;BMP280;59767;51.344;12.362;2022-10-16T01:30:58;100056.09;;;16.08
71897;BMP280;59767;51.344;12.362;2022-10-16T01:34:11;100061.19;;;16.08
71897;BMP280;59767;51.344;12.362;2022-10-16T01:37:25;100072.59;;;16.06
71897;BMP280;59767;51.344;12.362;2022-10-16T01:40:34;100081.63;;;16.02
71897;BMP280;59767;51.344;12.362;2022-10-16T01:43:54;100078.72;;;15.98
71897;BMP280;59767;51.344;12.362;2022-10-16T01:47:00;100081.66;;;15.95
71897;BMP280;59767;51.344;12.362;2022-10-16T01:50:06;100081.66;;;15.95
71897;BMP280;59767;51.344;12.362;2022-10-16T01:53:13;100088.94;;;15.92
71897;BMP280;59767;51.344;12.362;2022-10-16T01:56:19;100089.34;;;15.89
71897;BMP280;59767;51.344;12.362;2022-10-16T01:59:28;100089.72;;;15.86
71897;BMP280;59767;51.344;12.362;2022-10-16T02:02:34;100099.53;;;15.82
71897;BMP280;59767;51.344;12.362;2022-10-16T02:05:43;100090.88;;;15.77
71897;BMP280;59767;51.344;12.362;2022-10-16T02:08:48;100073.19;;;15.75
71897;BMP280;59767;51.344;12.362;2022-10-16T02:11:54;100076.94;;;15.79
71897;BMP280;59767;51.344;12.362;2022-10-16T02:14:58;100073.78;;;15.90
71897;BMP280;59767;51.344;12.362;2022-10-16T02:18:04;100064.94;;;15.93
71897;BMP280;59767;51.344;12.362;2022-10-16T02:24:46;100094.22;;;15.90
71897;BMP280;59767;51.344;12.362;2022-10-16T02:28:10;100094.44;;;15.89
71897;BMP280;59767;51.344;12.362;2022-10-16T02:31:24;100088.13;;;15.85
71897;BMP280;59767;51.344;12.362;2022-10-16T02:34:31;100113.69;;;15.85
71897;BMP280;59767;51.344;12.362;2022-10-16T02:37:36;100111.53;;;15.88
71897;BMP280;59767;51.344;12.362;2022-10-16T02:40:42;100111.31;;;15.90
71897;BMP280;59767;51.344;12.362;2022-10-16T02:43:46;100106.81;;;15.85
71897;BMP280;59767;51.344;12.362;2022-10-16T02:46:50;100106.22;;;15.83
71897;BMP280;59767;51.344;12.362;2022-10-16T02:49:54;100106.78;;;15.79
71897;BMP280;59767;51.344;12.362;2022-10-16T02:52:58;100099.72;;;15.74
71897;BMP280;59767;51.344;12.362;2022-10-16T02:56:02;100101.28;;;15.75
71897;BMP280;59767;51.344;12.362;2022-10-16T02:59:07;100109.13;;;15.74
71897;BMP280;59767;51.344;12.362;2022-10-16T03:02:11;100099.50;;;15.69
71897;BMP280;59767;51.344;12.362;2022-10-16T03:05:14;100096.56;;;15.66
71897;BMP280;59767;51.344;12.362;2022-10-16T03:08:18;100116.38;;;15.64
71897;BMP280;59767;51.344;12.362;2022-10-16T03:11:27;100106.34;;;15.62
71897;BMP280;59767;51.344;12.362;2022-10-16T03:14:32;100110.72;;;15.68
71897;BMP280;59767;51.344;12.362;2022-10-16T03:17:37;100115.44;;;15.65
71897;BMP280;59767;51.344;12.362;2022-10-16T03:20:43;100118.19;;;15.70
71897;BMP280;59767;51.344;12.362;2022-10-16T03:23:47;100105.59;;;15.75
71897;BMP280;59767;51.344;12.362;2022-10-16T03:26:50;100117.81;;;15.79
71897;BMP280;59767;51.344;12.362;2022-10-16T03:29:54;100120.19;;;15.81
71897;BMP280;59767;51.344;12.362;2022-10-16T03:32:58;100130.59;;;15.79
71897;BMP280;59767;51.344;12.362;2022-10-16T03:36:02;100137.66;;;15.77
71897;BMP280;59767;51.344;12.362;2022-10-16T03:39:06;100137.66;;;15.77
71897;BMP280;59767;51.344;12.362;2022-10-16T03:42:10;100135.69;;;15.79
71897;BMP280;59767;51.344;12.362;2022-10-16T03:45:14;100129.22;;;15.77
71897;BMP280;59767;51.344;12.362;2022-10-16T03:48:18;100120.38;;;15.73
71897;BMP280;59767;51.344;12.362;2022-10-16T03:51:22;100116.63;;;15.75
71897;BMP280;59767;51.344;12.362;2022-10-16T03:54:27;100114.28;;;15.87
71897;BMP280;59767;51.344;12.362;2022-10-16T03:57:31;100111.13;;;15.85
71897;BMP280;59767;51.344;12.362;2022-10-16T04:00:35;100101.50;;;15.87
71897;BMP280;59767;51.344;12.362;2022-10-16T04:03:39;100115.44;;;15.91
71897;BMP280;59767;51.344;12.362;2022-10-16T04:06:43;100117.66;;;15.87
71897;BMP280;59767;51.344;12.362;2022-10-16T04:09:47;100118.59;;;15.86
71897;BMP280;59767;51.344;12.362;2022-10-16T04:12:51;100111.72;;;15.80
71897;BMP280;59767;51.344;12.362;2022-10-16T04:15:55;100123.88;;;15.78
71897;BMP280;59767;51.344;12.362;2022-10-16T04:18:59;100116.63;;;15.82
71897;BMP280;59767;51.344;12.362;2022-10-16T04:22:03;100111.50;;;15.75
71897;BMP280;59767;51.344;12.362;2022-10-16T04:25:07;100128.78;;;15.73
71897;BMP280;59767;51.344;12.362;2022-10-16T04:28:11;100126.81;;;15.69
71897;BMP280;59767;51.344;12.362;2022-10-16T04:31:15;100146.69;;;15.67
71897;BMP280;59767;51.344;12.362;2022-10-16T04:34:18;100148.44;;;15.60
71897;BMP280;59767;51.344;12.362;2022-10-16T04:37:24;100147.59;;;15.53
71897;BMP280;59767;51.344;12.362;2022-10-16T04:40:30;100150.97;;;15.60
71897;BMP280;59767;51.344;12.362;2022-10-16T04:43:36;100152.34;;;15.56
71897;BMP280;59767;51.344;12.362;2022-10-16T04:46:40;100165.09;;;15.49
71897;BMP280;59767;51.344;12.362;2022-10-16T04:49:44;100162.38;;;15.51
71897;BMP280;59767;51.344;12.362;2022-10-16T04:52:48;100156.81;;;15.47
71897;BMP280;59767;51.344;12.362;2022-10-16T04:55:52;100159.59;;;15.52
71897;BMP280;59767;51.344;12.362;2022-10-16T04:58:56;100175.31;;;15.49
71897;BMP280;59767;51.344;12.362;2022-10-16T05:02:00;100176.44;;;15.47
71897;BMP280;59767;51.344;12.362;2022-10-16T05:05:05;100185.13;;;15.46
71897;BMP280;59767;51.344;12.362;2022-10-16T05:08:09;100186.88;;;15.45
71897;BMP280;59767;51.344;12.362;2022-10-16T05:11:13;100195.72;;;15.43
71897;BMP280;59767;51.344;12.362;2022-10-16T05:14:17;100193.19;;;15.49
71897;BMP280;59767;51.344;12.362;2022-10-16T05:17:22;100184.81;;;15.62
71897;BMP280;59767;51.344;12.362;2022-10-16T05:20:26;100186.97;;;15.65
71897;BMP280;59767;51.344;12.362;2022-10-16T05:23:30;100189.91;;;15.62
71897;BMP280;59767;51.344;12.362;2022-10-16T05:26:34;100189.28;;;15.60
71897;BMP280;59767;51.344;12.362;2022-10-16T05:29:38;100201.28;;;15.59
71897;BMP280;59767;51.344;12.362;2022-10-16T05:32:47;100196.13;;;15.53
71897;BMP280;59767;51.344;12.362;2022-10-16T05:35:51;100201.22;;;15.53
71897;BMP280;59767;51.344;12.362;2022-10-16T05:38:55;100202.63;;;15.49
71897;BMP280;59767;51.344;12.362;2022-10-16T05:41:59;100197.50;;;15.49
71897;BMP280;59767;51.344;12.362;2022-10-16T05:45:05;100209.75;;;15.60
71897;BMP280;59767;51.344;12.362;2022-10-16T05:48:09;100202.47;;;15.57
71897;BMP280;59767;51.344;12.362;2022-10-16T05:51:14;100213.88;;;15.61
71897;BMP280;59767;51.344;12.362;2022-10-16T05:54:18;100218.38;;;15.59
71897;BMP280;59767;51.344;12.362;2022-10-16T05:57:23;100215.84;;;15.59
71897;BMP280;59767;51.344;12.362;2022-10-16T06:00:27;100226.06;;;15.65
71897;BMP280;59767;51.344;12.362;2022-10-16T06:03:31;100226.06;;;15.65
71897;BMP280;59767;51.344;12.362;2022-10-16T06:06:35;100231.59;;;15.75
71897;BMP280;59767;51.344;12.362;2022-10-16T06:09:40;100234.38;;;15.80
71897;BMP280;59767;51.344;12.362;2022-10-16T06:12:43;100238.31;;;15.83
71897;BMP280;59767;51.344;12.362;2022-10-16T06:15:47;100241.28;;;15.86
71897;BMP280;59767;51.344;12.362;2022-10-16T06:18:52;100221.66;;;16.00
71897;BMP280;59767;51.344;12.362;2022-10-16T06:21:57;100234.66;;;16.05
71897;BMP280;59767;51.344;12.362;2022-10-16T06:25:02;100246.44;;;16.06
71897;BMP280;59767;51.344;12.362;2022-10-16T06:28:06;100237.81;;;16.07
71897;BMP280;59767;51.344;12.362;2022-10-16T06:31:11;100249.84;;;16.13
71897;BMP280;59767;51.344;12.362;2022-10-16T06:34:15;100246.88;;;16.16
71897;BMP280;59767;51.344;12.362;2022-10-16T06:37:19;100262.63;;;16.13
71897;BMP280;59767;51.344;12.362;2022-10-16T06:40:22;100263.78;;;16.17
71897;BMP280;59767;51.344;12.362;2022-10-16T06:43:28;100272.09;;;16.19
71897;BMP280;59767;51.344;12.362;2022-10-16T06:46:39;100265.56;;;16.23
71897;BMP280;59767;51.344;12.362;2022-10-16T06:49:43;100269.13;;;16.22
71897;BMP280;59767;51.344;12.362;2022-10-16T06:52:46;100275.44;;;16.32
71897;BMP280;59767;51.344;12.362;2022-10-16T06:55:51;100271.72;;;16.35
71897;BMP280;59767;51.344;12.362;2022-10-16T06:58:55;100275.47;;;16.39
71897;BMP280;59767;51.344;12.362;2022-10-16T07:01:59;100278.41;;;16.36
71897;BMP280;59767;51.344;12.362;2022-10-16T07:05:03;100275.06;;;16.35
71897;BMP280;59767;51.344;12.362;2022-10-16T07:08:08;100274.28;;;16.35
71897;BMP280;59767;51.344;12.362;2022-10-16T07:11:14;100274.84;;;16.37
71897;BMP280;59767;51.344;12.362;2022-10-16T07:14:20;100262.06;;;16.43
71897;BMP280;59767;51.344;12.362;2022-10-16T07:17:24;100221.97;;;16.50
71897;BMP280;59767;51.344;12.362;2022-10-16T07:20:28;100227.66;;;16.52
71897;BMP280;59767;51.344;12.362;2022-10-16T07:23:32;100254.03;;;16.59
71897;BMP280;59767;51.344;12.362;2022-10-16T07:26:37;100273.91;;;16.77
71897;BMP280;59767;51.344;12.362;2022-10-16T07:29:43;100297.34;;;16.93
71897;BMP280;59767;51.344;12.362;2022-10-16T07:32:47;100307.19;;;17.03
71897;BMP280;59767;51.344;12.362;2022-10-16T07:35:52;100311.91;;;17.12
71897;BMP280;59767;51.344;12.362;2022-10-16T07:38:56;100309.94;;;17.08
71897;BMP280;59767;51.344;12.362;2022-10-16T07:42:02;100312.13;;;16.98
71897;BMP280;59767;51.344;12.362;2022-10-16T07:45:07;100310.34;;;16.98
71897;BMP280;59767;51.344;12.362;2022-10-16T07:48:11;100307.75;;;17.11
71897;BMP280;59767;51.344;12.362;2022-10-16T07:51:19;100324.31;;;17.22
71897;BMP280;59767;51.344;12.362;2022-10-16T07:54:23;100326.28;;;17.39
71897;BMP280;59767;51.344;12.362;2022-10-16T07:57:27;100329.97;;;17.50
71897;BMP280;59767;51.344;12.362;2022-10-16T08:00:32;100332.72;;;17.61
71897;BMP280;59767;51.344;12.362;2022-10-16T08:03:37;100336.38;;;17.85
71897;BMP280;59767;51.344;12.362;2022-10-16T08:06:41;100343.97;;;18.11
71897;BMP280;59767;51.344;12.362;2022-10-16T08:09:49;100333.16;;;18.33
71897;BMP280;59767;51.344;12.362;2022-10-16T08:12:54;100346.81;;;18.65
71897;BMP280;59767;51.344;12.362;2022-10-16T08:15:58;100358.50;;;19.03
71897;BMP280;59767;51.344;12.362;2022-10-16T08:19:02;100347.97;;;19.36
71897;BMP280;59767;51.344;12.362;2022-10-16T08:22:06;100361.44;;;19.49
71897;BMP280;59767;51.344;12.362;2022-10-16T08:25:10;100364.38;;;19.52
71897;BMP280;59767;51.344;12.362;2022-10-16T08:28:14;100369.38;;;19.30
71897;BMP280;59767;51.344;12.362;2022-10-16T08:31:20;100370.31;;;19.11
71897;BMP280;59767;51.344;12.362;2022-10-16T08:34:24;100354.84;;;18.93
71897;BMP280;59767;51.344;12.362;2022-10-16T08:37:31;100367.03;;;19.04
71897;BMP280;59767;51.344;12.362;2022-10-16T08:40:36;100364.19;;;19.12
71897;BMP280;59767;51.344;12.362;2022-10-16T08:47:42;100381.06;;;19.26
71897;BMP280;59767;51.344;12.362;2022-10-16T08:50:49;100380.72;;;19.16
71897;BMP280;59767;51.344;12.362;2022-10-16T08:54:22;100378.16;;;19.16
71897;BMP280;59767;51.344;12.362;2022-10-16T08:57:29;100396.25;;;19.27
71897;BMP280;59767;51.344;12.362;2022-10-16T09:00:35;100398.66;;;19.47
71897;BMP280;59767;51.344;12.362;2022-10-16T09:04:04;100417.09;;;19.61
71897;BMP280;59767;51.344;12.362;2022-10-16T09:10:43;100414.28;;;19.81
71897;BMP280;59767;51.344;12.362;2022-10-16T09:14:01;100417.00;;;20.04
71897;BMP280;59767;51.344;12.362;2022-10-16T09:17:32;100417.09;;;20.27
71897;BMP280;59767;51.344;12.362;2022-10-16T09:20:49;100414.19;;;20.35
71897;BMP280;59767;51.344;12.362;2022-10-16T09:23:57;100414.38;;;20.51
71897;BMP280;59767;51.344;12.362;2022-10-16T09:27:02;100407.94;;;20.42
71897;BMP280;59767;51.344;12.362;2022-10-16T09:30:15;100411.88;;;20.33
71897;BMP280;59767;51.344;12.362;2022-10-16T09:33:23;100419.00;;;20.31
71897;BMP280;59767;51.344;12.362;2022-10-16T09:36:35;100423.03;;;20.27
71897;BMP280;59767;51.344;12.362;2022-10-16T09:39:48;100417.25;;;20.43
71897;BMP280;59767;51.344;12.362;2022-10-16T09:42:57;100426.81;;;20.54
71897;BMP280;59767;51.344;12.362;2022-10-16T09:46:20;100429.75;;;20.69
71897;BMP280;59767;51.344;12.362;2022-10-16T09:49:26;100440.22;;;20.56
71897;BMP280;59767;51.344;12.362;2022-10-16T09:52:30;100421.84;;;20.41
71897;BMP280;59767;51.344;12.362;2022-10-16T09:55:34;100436.03;;;20.32
71897;BMP280;59767;51.344;12.362;2022-10-16T09:58:43;100427.88;;;20.17
71897;BMP280;59767;51.344;12.362;2022-10-16T10:01:50;100438.97;;;20.18
71897;BMP280;59767;51.344;12.362;2022-10-16T10:04:55;100441.78;;;20.16
71897;BMP280;59767;51.344;12.362;2022-10-16T10:08:02;100432.97;;;20.24
71897;BMP280;59767;51.344;12.362;2022-10-16T10:11:10;100441.00;;;20.45
71897;BMP280;59767;51.344;12.362;2022-10-16T10:14:25;100453.56;;;20.53
71897;BMP280;59767;51.344;12.362;2022-10-16T10:17:30;100451.03;;;20.65
71897;BMP280;59767;51.344;12.362;2022-10-16T10:20:35;100456.66;;;20.73
71897;BMP280;59767;51.344;12.362;2022-10-16T10:23:42;100461.88;;;20.67
71897;BMP280;59767;51.344;12.362;2022-10-16T10:27:13;100458.56;;;20.48
71897;BMP280;59767;51.344;12.362;2022-10-16T10:30:29;100458.56;;;20.37
71897;BMP280;59767;51.344;12.362;2022-10-16T10:37:19;100466.38;;;20.42
71897;BMP280;59767;51.344;12.362;2022-10-16T10:40:47;100458.31;;;20.38
71897;BMP280;59767;51.344;12.362;2022-10-16T10:44:03;100461.19;;;20.30
71897;BMP280;59767;51.344;12.362;2022-10-16T10:47:47;100466.44;;;20.24
71897;BMP280;59767;51.344;12.362;2022-10-16T10:50:58;100470.34;;;20.26
71897;BMP280;59767;51.344;12.362;2022-10-16T10:54:40;100471.94;;;20.27
71897;BMP280;59767;51.344;12.362;2022-10-16T10:57:47;100474.50;;;20.27
71897;BMP280;59767;51.344;12.362;2022-10-16T11:01:08;100476.06;;;20.28
71897;BMP280;59767;51.344;12.362;2022-10-16T11:04:42;100470.38;;;20.38
71897;BMP280;59767;51.344;12.362;2022-10-16T11:07:59;100464.81;;;20.41
71897;BMP280;59767;51.344;12.362;2022-10-16T11:11:19;100463.59;;;20.43
71897;BMP280;59767;51.344;12.362;2022-10-16T11:14:48;100468.75;;;20.43
71897;BMP280;59767;51.344;12.362;2022-10-16T11:18:26;100481.72;;;20.37
71897;BMP280;59767;51.344;12.362;2022-10-16T11:21:41;100469.88;;;20.47
71897;BMP280;59767;51.344;12.362;2022-10-16T11:25:00;100474.16;;;20.53
71897;BMP280;59767;51.344;12.362;2022-10-16T11:31:32;100470.16;;;20.57
71897;BMP280;59767;51.344;12.362;2022-10-16T11:34:42;100470.72;;;20.59
71897;BMP280;59767;51.344;12.362;2022-10-16T11:37:49;100469.72;;;20.60
71897;BMP280;59767;51.344;12.362;2022-10-16T11:40:59;100474.41;;;20.63
71897;BMP280;59767;51.344;12.362;2022-10-16T11:44:35;100482.59;;;20.60
71897;BMP280;59767;51.344;12.362;2022-10-16T11:47:56;100486.28;;;20.64
71897;BMP280;59767;51.344;12.362;2022-10-16T11:51:11;100486.06;;;20.66
71897;BMP280;59767;51.344;12.362;2022-10-16T11:54:24;100479.09;;;20.66
71897;BMP280;59767;51.344;12.362;2022-10-16T11:57:35;100483.25;;;20.67
71897;BMP280;59767;51.344;12.362;2022-10-16T12:00:47;100486.97;;;20.71
71897;BMP280;59767;51.344;12.362;2022-10-16T12:07:27;100489.69;;;20.76
71897;BMP280;59767;51.344;12.362;2022-10-16T12:10:37;100490.16;;;20.73
71897;BMP280;59767;51.344;12.362;2022-10-16T12:13:47;100493.44;;;20.62
71897;BMP280;59767;51.344;12.362;2022-10-16T12:16:57;100500.16;;;20.63
71897;BMP280;59767;51.344;12.362;2022-10-16T12:23:20;100504.53;;;20.33
71897;BMP280;59767;51.344;12.362;2022-10-16T12:26:28;100506.31;;;20.33
71897;BMP280;59767;51.344;12.362;2022-10-16T12:29:36;100514.09;;;20.26
71897;BMP280;59767;51.344;12.362;2022-10-16T12:32:40;100510.91;;;20.13
71897;BMP280;59767;51.344;12.362;2022-10-16T12:35:51;100517.69;;;20.07
71897;BMP280;59767;51.344;12.362;2022-10-16T12:38:55;100513.41;;;20.01
71897;BMP280;59767;51.344;12.362;2022-10-16T12:45:33;100508.78;;;20.10
71897;BMP280;59767;51.344;12.362;2022-10-16T12:48:40;100522.06;;;20.07
71897;BMP280;59767;51.344;12.362;2022-10-16T12:52:04;100532.84;;;19.97
71897;BMP280;59767;51.344;12.362;2022-10-16T12:55:20;100528.00;;;19.89
71897;BMP280;59767;51.344;12.362;2022-10-16T12:58:46;100526.75;;;19.92
71897;BMP280;59767;51.344;12.362;2022-10-16T13:02:15;100523.97;;;19.93
71897;BMP280;59767;51.344;12.362;2022-10-16T13:09:10;100521.19;;;20.13
71897;BMP280;59767;51.344;12.362;2022-10-16T13:15:45;100530.44;;;20.20
71897;BMP280;59767;51.344;12.362;2022-10-16T13:19:07;100526.72;;;20.16
71897;BMP280;59767;51.344;12.362;2022-10-16T13:25:46;100534.22;;;20.18
71897;BMP280;59767;51.344;12.362;2022-10-16T13:28:51;100531.72;;;20.11
71897;BMP280;59767;51.344;12.362;2022-10-16T13:31:55;100531.06;;;20.16
71897;BMP280;59767;51.344;12.362;2022-10-16T13:35:00;100534.75;;;20.08
71897;BMP280;59767;51.344;12.362;2022-10-16T13:38:13;100536.19;;;19.98
71897;BMP280;59767;51.344;12.362;2022-10-16T13:41:18;100535.44;;;19.97
71897;BMP280;59767;51.344;12.362;2022-10-16T13:44:22;100534.44;;;19.98
71897;BMP280;59767;51.344;12.362;2022-10-16T13:47:28;100532.41;;;20.00
71897;BMP280;59767;51.344;12.362;2022-10-16T13:50:33;100548.00;;;20.05
71897;BMP280;59767;51.344;12.362;2022-10-16T13:53:37;100551.63;;;19.98
71897;BMP280;59767;51.344;12.362;2022-10-16T13:56:41;100548.56;;;19.89
71897;BMP280;59767;51.344;12.362;2022-10-16T13:59:45;100557.09;;;19.83
71897;BMP280;59767;51.344;12.362;2022-10-16T14:02:52;100557.34;;;19.82
71897;BMP280;59767;51.344;12.362;2022-10-16T14:06:02;100563.47;;;19.81
71897;BMP280;59767;51.344;12.362;2022-10-16T14:09:08;100569.25;;;19.76
71897;BMP280;59767;51.344;12.362;2022-10-16T14:12:16;100569.69;;;19.73
71897;BMP280;59767;51.344;12.362;2022-10-16T14:15:20;100568.53;;;19.69
71897;BMP280;59767;51.344;12.362;2022-10-16T14:18:26;100573.69;;;19.69
71897;BMP280;59767;51.344;12.362;2022-10-16T14:21:40;100583.97;;;19.69
71897;BMP280;59767;51.344;12.362;2022-10-16T14:24:44;100585.13;;;19.73
71897;BMP280;59767;51.344;12.362;2022-10-16T14:31:29;100576.31;;;19.87
71897;BMP280;59767;51.344;12.362;2022-10-16T14:34:38;100574.09;;;19.91
71897;BMP280;59767;51.344;12.362;2022-10-16T14:37:43;100578.44;;;19.90
71897;BMP280;59767;51.344;12.362;2022-10-16T14:40:49;100583.00;;;19.88
71897;BMP280;59767;51.344;12.362;2022-10-16T14:43:56;100582.03;;;19.89
71897;BMP280;59767;51.344;12.362;2022-10-16T14:47:13;100591.31;;;19.90
71897;BMP280;59767;51.344;12.362;2022-10-16T14:50:17;100590.16;;;19.86
71897;BMP280;59767;51.344;12.362;2022-10-16T14:53:22;100588.22;;;19.82
71897;BMP280;59767;51.344;12.362;2022-10-16T14:56:29;100592.03;;;19.73
71897;BMP280;59767;51.344;12.362;2022-10-16T14:59:41;100591.50;;;19.64
71897;BMP280;59767;51.344;12.362;2022-10-16T15:02:49;100597.34;;;19.53
71897;BMP280;59767;51.344;12.362;2022-10-16T15:05:54;100593.84;;;19.48
71897;BMP280;59767;51.344;12.362;2022-10-16T15:08:57;100598.59;;;19.45
71897;BMP280;59767;51.344;12.362;2022-10-16T15:12:02;100597.22;;;19.42
71897;BMP280;59767;51.344;12.362;2022-10-16T15:18:19;100600.41;;;19.38
71897;BMP280;59767;51.344;12.362;2022-10-16T15:21:26;100585.59;;;19.33
71897;BMP280;59767;51.344;12.362;2022-10-16T15:24:31;100595.94;;;19.27
71897;BMP280;59767;51.344;12.362;2022-10-16T15:27:34;100598.16;;;19.23
71897;BMP280;59767;51.344;12.362;2022-10-16T15:30:45;100613.19;;;19.20
71897;BMP280;59767;51.344;12.362;2022-10-16T15:33:53;100622.69;;;19.13
71897;BMP280;59767;51.344;12.362;2022-10-16T15:37:02;100627.47;;;19.09
71897;BMP280;59767;51.344;12.362;2022-10-16T15:40:08;100633.41;;;19.10
71897;BMP280;59767;51.344;12.362;2022-10-16T15:43:12;100632.22;;;19.12
71897;BMP280;59767;51.344;12.362;2022-10-16T15:46:21;100641.28;;;19.15
71897;BMP280;59767;51.344;12.362;2022-10-16T15:49:25;100635.13;;;19.16
71897;BMP280;59767;51.344;12.362;2022-10-16T15:52:29;100643.63;;;19.16
71897;BMP280;59767;51.344;12.362;2022-10-16T15:55:35;100649.38;;;19.18
71897;BMP280;59767;51.344;12.362;2022-10-16T15:58:41;100649.94;;;19.20
71897;BMP280;59767;51.344;12.362;2022-10-16T16:01:45;100655.28;;;19.19
71897;BMP280;59767;51.344;12.362;2022-10-16T16:04:49;100655.91;;;19.14
71897;BMP280;59767;51.344;12.362;2022-10-16T16:07:53;100658.34;;;19.03
71897;BMP280;59767;51.344;12.362;2022-10-16T16:11:02;100656.00;;;18.95
71897;BMP280;59767;51.344;12.362;2022-10-16T16:14:07;100656.59;;;18.90
71897;BMP280;59767;51.344;12.362;2022-10-16T16:17:15;100657.56;;;18.89
71897;BMP280;59767;51.344;12.362;2022-10-16T16:20:19;100660.38;;;18.88
71897;BMP280;59767;51.344;12.362;2022-10-16T16:23:22;100669.25;;;18.85
71897;BMP280;59767;51.344;12.362;2022-10-16T16:26:28;100665.13;;;18.78
71897;BMP280;59767;51.344;12.362;2022-10-16T16:29:39;100665.94;;;18.72
71897;BMP280;59767;51.344;12.362;2022-10-16T16:32:43;100672.47;;;18.68
71897;BMP280;59767;51.344;12.362;2022-10-16T16:35:48;100679.78;;;18.64
71897;BMP280;59767;51.344;12.362;2022-10-16T16:38:52;100685.88;;;18.63
71897;BMP280;59767;51.344;12.362;2022-10-16T16:41:57;100688.44;;;18.63
71897;BMP280;59767;51.344;12.362;2022-10-16T16:45:02;100693.22;;;18.60
71897;BMP280;59767;51.344;12.362;2022-10-16T16:48:06;100698.34;;;18.53
71897;BMP280;59767;51.344;12.362;2022-10-16T16:51:13;100702.09;;;18.51
71897;BMP280;59767;51.344;12.362;2022-10-16T16:54:21;100706.09;;;18.47
71897;BMP280;59767;51.344;12.362;2022-10-16T16:57:25;100715.53;;;18.40
71897;BMP280;59767;51.344;12.362;2022-10-16T17:00:29;100722.25;;;18.34
71897;BMP280;59767;51.344;12.362;2022-10-16T17:03:35;100733.88;;;18.30
71897;BMP280;59767;51.344;12.362;2022-10-16T17:06:39;100734.91;;;18.29
71897;BMP280;59767;51.344;12.362;2022-10-16T17:09:44;100747.16;;;18.34
71897;BMP280;59767;51.344;12.362;2022-10-16T17:12:48;100739.22;;;18.35
71897;BMP280;59767;51.344;12.362;2022-10-16T17:15:53;100741.19;;;18.40
71897;BMP280;59767;51.344;12.362;2022-10-16T17:19:04;100745.19;;;18.42
71897;BMP280;59767;51.344;12.362;2022-10-16T17:22:08;100752.06;;;18.42
71897;BMP280;59767;51.344;12.362;2022-10-16T17:25:12;100764.13;;;18.41
71897;BMP280;59767;51.344;12.362;2022-10-16T17:28:16;100764.31;;;18.46
71897;BMP280;59767;51.344;12.362;2022-10-16T17:31:25;100769.44;;;18.46
71897;BMP280;59767;51.344;12.362;2022-10-16T17:34:30;100769.06;;;18.43
71897;BMP280;59767;51.344;12.362;2022-10-16T17:37:34;100763.34;;;18.41
71897;BMP280;59767;51.344;12.362;2022-10-16T17:40:38;100765.91;;;18.41
71897;BMP280;59767;51.344;12.362;2022-10-16T17:43:43;100768.88;;;18.38
71897;BMP280;59767;51.344;12.362;2022-10-16T17:46:50;100769.66;;;18.38
71897;BMP280;59767;51.344;12.362;2022-10-16T17:49:56;100768.28;;;18.42
71897;BMP280;59767;51.344;12.362;2022-10-16T17:53:01;100769.44;;;18.40
71897;BMP280;59767;51.344;12.362;2022-10-16T17:56:10;100773.41;;;18.36
71897;BMP280;59767;51.344;12.362;2022-10-16T17:59:15;100774.97;;;18.24
71897;BMP280;59767;51.344;12.362;2022-10-16T18:02:19;100765.06;;;18.21
71897;BMP280;59767;51.344;12.362;2022-10-16T18:05:24;100766.50;;;18.23
71897;BMP280;59767;51.344;12.362;2022-10-16T18:08:28;100775.94;;;18.23
71897;BMP280;59767;51.344;12.362;2022-10-16T18:11:36;100792.16;;;18.23
71897;BMP280;59767;51.344;12.362;2022-10-16T18:14:40;100794.31;;;18.20
71897;BMP280;59767;51.344;12.362;2022-10-16T18:17:46;100793.09;;;18.16
71897;BMP280;59767;51.344;12.362;2022-10-16T18:21:01;100794.91;;;18.15